Terminal Aerodrome Forecast
Issued by NWS

Home | Current Version | Previous Version | Text Only | Print | Product List | Glossary On
Versions: 1 2 3 4 5 6 7 8 9 10 11 12 13 14 15 16 17 18 19 20 21 22 23 24 25 26 27 28 29 30 31 32 33 34
000
FTUS45 KBOU 241125
TAFAPA
TAF
KAPA 241125Z 2412/2512 19007KT P6SM FEW120 BKN180
     FM241600 26007KT P6SM SCT110 SCT180
     FM241800 29012KT P6SM VCSH SCT090 BKN120
      TEMPO 2419/2423 VRB25G35KT -TSRA BKN080CB
     FM250200 28009KT P6SM SCT090 BKN140 BKN200
     FM250500 19008KT P6SM FEW110 BKN200=

USA.gov is the U.S. government's official web portal to all federal, state and local government web resources and services.